Time,TemperatureF,DewpointF,PressureIn,WindDirection,WindDirectionDegrees,WindSpeedMPH,WindSpeedGustMPH,Humidity,HourlyPrecipIn,Conditions,Clouds,dailyrainin,SolarRadiationWatts/m^2,SoftwareType,DateUTC
2013-07-15 00:01:00,70.0,69.0,-100.00,WNW,296,0.0,0.0,98,0.00,,,0.00,0.000000,,2013-07-15 04:01:00,
2013-07-15 00:22:00,70.0,69.0,-100.00,WNW,296,0.0,0.0,98,0.00,,,0.00,0.000000,,2013-07-15 04:22:00,
2013-07-15 00:33:00,70.0,69.0,-100.00,WNW,296,0.0,0.0,98,0.00,,,0.00,0.000000,,2013-07-15 04:33:00,
2013-07-15 00:42:00,70.0,69.0,-100.00,WNW,296,0.0,0.0,98,0.00,,,0.00,0.000000,,2013-07-15 04:42:00,
2013-07-15 00:54:00,70.0,69.0,-100.00,WNW,296,0.0,0.0,98,0.00,,,0.00,0.000000,,2013-07-15 04:54:00,
2013-07-15 01:01:00,69.0,68.0,-100.00,WNW,296,0.0,0.0,98,0.00,,,0.00,0.000000,,2013-07-15 05:01:00,
2013-07-15 01:22:00,69.0,68.0,-100.00,WNW,296,0.0,0.0,98,0.00,,,0.00,0.000000,,2013-07-15 05:22:00,
2013-07-15 01:32:00,69.0,68.0,-100.00,WNW,296,0.0,0.0,98,0.00,,,0.00,0.000000,,2013-07-15 05:32:00,
2013-07-15 01:43:00,69.0,68.0,-100.00,WNW,296,0.0,0.0,98,0.00,,,0.00,0.000000,,2013-07-15 05:43:00,
2013-07-15 01:53:00,69.0,68.0,-100.00,WNW,296,0.0,0.0,98,0.00,,,0.00,0.000000,,2013-07-15 05:53:00,
2013-07-15 02:01:00,68.0,68.0,-100.00,North,4,0.0,0.0,99,0.00,,,0.00,0.000000,,2013-07-15 06:01:00,
2013-07-15 02:22:00,68.0,68.0,-100.00,North,4,0.0,0.0,99,0.00,,,0.00,0.000000,,2013-07-15 06:22:00,
2013-07-15 02:32:00,68.0,68.0,-100.00,North,4,0.0,0.0,99,0.00,,,0.00,0.000000,,2013-07-15 06:32:00,
2013-07-15 02:42:00,68.0,68.0,-100.00,North,4,0.0,0.0,99,0.00,,,0.00,0.000000,,2013-07-15 06:42:00,
2013-07-15 02:53:00,68.0,68.0,-100.00,North,4,0.0,0.0,99,0.00,,,0.00,0.000000,,2013-07-15 06:53:00,
2013-07-15 03:01:00,67.0,67.0,-100.00,East,91,0.0,0.0,99,0.00,,,0.00,0.000000,,2013-07-15 07:01:00,
2013-07-15 03:22:00,67.0,67.0,-100.00,East,91,0.0,0.0,99,0.00,,,0.00,0.000000,,2013-07-15 07:22:00,
2013-07-15 03:33:00,67.0,67.0,-100.00,East,91,0.0,0.0,99,0.00,,,0.00,0.000000,,2013-07-15 07:33:00,
2013-07-15 03:44:00,67.0,67.0,-100.00,East,91,0.0,0.0,99,0.00,,,0.00,0.000000,,2013-07-15 07:44:00,
2013-07-15 03:53:00,67.0,67.0,-100.00,East,91,0.0,0.0,99,0.00,,,0.00,0.000000,,2013-07-15 07:53:00,
2013-07-15 04:01:00,67.0,67.0,-100.00,East,91,0.0,0.0,99,0.00,,,0.00,0.000000,,2013-07-15 08:01:00,
2013-07-15 04:22:00,67.0,67.0,-100.00,East,91,0.0,0.0,99,0.00,,,0.00,0.000000,,2013-07-15 08:22:00,
2013-07-15 04:32:00,67.0,67.0,-100.00,East,91,0.0,0.0,99,0.00,,,0.00,0.000000,,2013-07-15 08:32:00,
2013-07-15 04:43:00,67.0,67.0,-100.00,East,91,0.0,0.0,99,0.00,,,0.00,0.000000,,2013-07-15 08:43:00,
2013-07-15 04:53:00,67.0,67.0,-100.00,East,91,0.0,0.0,99,0.00,,,0.00,0.000000,,2013-07-15 08:53:00,
2013-07-15 05:01:00,66.0,66.0,-100.00,South,187,0.0,2.0,99,0.00,,,0.00,0.000000,,2013-07-15 09:01:00,
2013-07-15 05:32:00,66.0,66.0,-100.00,South,187,0.0,2.0,99,0.00,,,0.00,0.000000,,2013-07-15 09:32:00,
2013-07-15 05:43:00,66.0,66.0,-100.00,South,187,0.0,2.0,99,0.00,,,0.00,0.000000,,2013-07-15 09:43:00,
2013-07-15 05:52:00,66.0,66.0,-100.00,South,187,0.0,2.0,99,0.00,,,0.00,0.000000,,2013-07-15 09:52:00,
2013-07-15 06:01:00,66.0,66.0,-100.00,NNW,347,0.0,3.0,99,0.00,,,0.00,5.000000,,2013-07-15 10:01:00,
2013-07-15 06:22:00,66.0,66.0,-100.00,NNW,347,0.0,3.0,99,0.00,,,0.00,5.000000,,2013-07-15 10:22:00,
2013-07-15 06:32:00,66.0,66.0,-100.00,NNW,347,0.0,3.0,99,0.00,,,0.00,5.000000,,2013-07-15 10:32:00,
2013-07-15 06:43:00,66.0,66.0,-100.00,NNW,347,0.0,3.0,99,0.00,,,0.00,5.000000,,2013-07-15 10:43:00,
2013-07-15 06:53:00,66.0,66.0,-100.00,NNW,347,0.0,3.0,99,0.00,,,0.00,5.000000,,2013-07-15 10:53:00,
2013-07-15 07:01:00,69.0,67.0,-100.00,SSW,193,0.0,5.0,92,0.00,,,0.00,24.000000,,2013-07-15 11:01:00,
2013-07-15 07:22:00,69.0,67.0,-100.00,SSW,193,0.0,5.0,92,0.00,,,0.00,24.000000,,2013-07-15 11:22:00,
2013-07-15 07:32:00,69.0,67.0,-100.00,SSW,193,0.0,5.0,92,0.00,,,0.00,24.000000,,2013-07-15 11:32:00,
2013-07-15 07:42:00,69.0,67.0,-100.00,SSW,193,0.0,5.0,92,0.00,,,0.00,24.000000,,2013-07-15 11:42:00,
2013-07-15 07:52:00,69.0,67.0,-100.00,SSW,193,0.0,5.0,92,0.00,,,0.00,24.000000,,2013-07-15 11:52:00,
2013-07-15 08:01:00,73.0,68.0,-100.00,SSW,209,1.0,5.0,85,0.00,,,0.00,37.000000,,2013-07-15 12:01:00,
2013-07-15 08:22:00,73.0,68.0,-100.00,SSW,209,1.0,5.0,85,0.00,,,0.00,37.000000,,2013-07-15 12:22:00,
2013-07-15 08:33:00,73.0,68.0,-100.00,SSW,209,1.0,5.0,85,0.00,,,0.00,37.000000,,2013-07-15 12:33:00,
2013-07-15 08:42:00,73.0,68.0,-100.00,SSW,209,1.0,5.0,85,0.00,,,0.00,37.000000,,2013-07-15 12:42:00,
2013-07-15 08:53:00,73.0,68.0,-100.00,SSW,209,1.0,5.0,85,0.00,,,0.00,37.000000,,2013-07-15 12:53:00,
2013-07-15 09:01:00,78.0,68.0,-100.00,South,191,1.0,7.0,72,0.00,,,0.00,158.000000,,2013-07-15 13:01:00,
2013-07-15 09:33:00,78.0,68.0,-100.00,South,191,1.0,7.0,72,0.00,,,0.00,158.000000,,2013-07-15 13:33:00,
2013-07-15 09:43:00,78.0,68.0,-100.00,South,191,1.0,7.0,72,0.00,,,0.00,158.000000,,2013-07-15 13:43:00,
2013-07-15 09:53:00,78.0,68.0,-100.00,South,191,1.0,7.0,72,0.00,,,0.00,158.000000,,2013-07-15 13:53:00,
2013-07-15 10:01:00,84.0,69.0,-100.00,SSW,209,2.0,7.0,61,0.00,,,0.00,645.000000,,2013-07-15 14:01:00,
2013-07-15 10:33:00,84.0,69.0,-100.00,SSW,209,2.0,7.0,61,0.00,,,0.00,645.000000,,2013-07-15 14:33:00,
2013-07-15 10:43:00,84.0,69.0,-100.00,SSW,209,2.0,7.0,61,0.00,,,0.00,645.000000,,2013-07-15 14:43:00,
2013-07-15 11:01:00,87.0,70.0,-100.00,South,185,1.0,9.0,57,0.00,,,0.00,798.000000,,2013-07-15 15:01:00,
2013-07-15 11:53:00,87.0,70.0,-100.00,South,185,1.0,9.0,57,0.00,,,0.00,798.000000,,2013-07-15 15:53:00,
2013-07-15 12:01:00,88.0,66.0,-100.00,SSW,209,2.0,8.0,48,0.00,,,0.00,936.000000,,2013-07-15 16:01:00,
2013-07-15 12:49:00,88.0,66.0,-100.00,SSW,209,2.0,8.0,48,0.00,,,0.00,936.000000,,2013-07-15 16:49:00,
2013-07-15 13:01:00,90.0,67.0,-100.00,SSW,194,2.0,10.0,47,0.00,,,0.00,1003.000000,,2013-07-15 17:01:00,
2013-07-15 13:37:00,90.0,67.0,-100.00,SSW,194,2.0,10.0,47,0.00,,,0.00,1003.000000,,2013-07-15 17:37:00,
2013-07-15 13:51:00,90.0,67.0,-100.00,SSW,194,2.0,10.0,47,0.00,,,0.00,1003.000000,,2013-07-15 17:51:00,
2013-07-15 14:00:00,90.0,67.0,-100.00,SSW,194,2.0,10.0,47,0.00,,,0.00,1003.000000,,2013-07-15 18:00:00,
2013-07-15 14:01:00,92.0,66.0,-100.00,SSW,205,2.0,10.0,43,0.00,,,0.00,995.000000,,2013-07-15 18:01:00,
2013-07-15 14:40:00,92.0,66.0,-100.00,SSW,205,2.0,10.0,43,0.00,,,0.00,995.000000,,2013-07-15 18:40:00,
2013-07-15 14:45:00,92.0,66.0,-100.00,SSW,205,2.0,10.0,43,0.00,,,0.00,995.000000,,2013-07-15 18:45:00,
2013-07-15 14:59:00,92.0,66.0,-100.00,SSW,205,2.0,10.0,43,0.00,,,0.00,995.000000,,2013-07-15 18:59:00,
2013-07-15 15:01:00,93.0,67.0,-100.00,NNE,16,1.0,7.0,43,0.00,,,0.00,930.000000,,2013-07-15 19:01:00,
2013-07-15 15:39:00,93.0,67.0,-100.00,NNE,16,1.0,7.0,43,0.00,,,0.00,930.000000,,2013-07-15 19:39:00,
2013-07-15 15:49:00,93.0,67.0,-100.00,NNE,16,1.0,7.0,43,0.00,,,0.00,930.000000,,2013-07-15 19:49:00,
2013-07-15 15:57:00,93.0,67.0,-100.00,NNE,16,1.0,7.0,43,0.00,,,0.00,930.000000,,2013-07-15 19:57:00,
2013-07-15 16:01:00,92.0,66.0,-100.00,WSW,247,2.0,8.0,42,0.00,,,0.00,809.000000,,2013-07-15 20:01:00,
2013-07-15 16:37:00,92.0,66.0,-100.00,WSW,247,2.0,8.0,42,0.00,,,0.00,809.000000,,2013-07-15 20:37:00,
2013-07-15 16:43:00,92.0,66.0,-100.00,WSW,247,2.0,8.0,42,0.00,,,0.00,809.000000,,2013-07-15 20:43:00,
2013-07-15 16:59:00,92.0,66.0,-100.00,WSW,247,2.0,8.0,42,0.00,,,0.00,809.000000,,2013-07-15 20:59:00,
2013-07-15 17:01:00,92.0,67.0,-100.00,West,270,1.0,6.0,44,0.00,,,0.00,641.000000,,2013-07-15 21:01:00,
2013-07-15 17:40:00,92.0,67.0,-100.00,West,270,1.0,6.0,44,0.00,,,0.00,641.000000,,2013-07-15 21:40:00,
2013-07-15 17:48:00,92.0,67.0,-100.00,West,270,1.0,6.0,44,0.00,,,0.00,641.000000,,2013-07-15 21:48:00,
2013-07-15 18:01:00,90.0,68.0,-100.00,South,176,0.0,5.0,48,0.00,,,0.00,390.000000,,2013-07-15 22:01:00,
2013-07-15 18:22:00,90.0,68.0,-100.00,South,176,0.0,5.0,48,0.00,,,0.00,390.000000,,2013-07-15 22:22:00,
2013-07-15 18:35:00,90.0,68.0,-100.00,South,176,0.0,5.0,48,0.00,,,0.00,390.000000,,2013-07-15 22:35:00,
2013-07-15 18:44:00,90.0,68.0,-100.00,South,176,0.0,5.0,48,0.00,,,0.00,390.000000,,2013-07-15 22:44:00,
2013-07-15 18:54:00,90.0,68.0,-100.00,South,176,0.0,5.0,48,0.00,,,0.00,390.000000,,2013-07-15 22:54:00,
2013-07-15 19:01:00,84.0,68.0,-100.00,NNW,328,0.0,3.0,58,0.00,,,0.00,240.000000,,2013-07-15 23:01:00,
2013-07-15 19:30:00,84.0,68.0,-100.00,NNW,328,0.0,3.0,58,0.00,,,0.00,240.000000,,2013-07-15 23:30:00,
2013-07-15 19:40:00,84.0,68.0,-100.00,NNW,328,0.0,3.0,58,0.00,,,0.00,240.000000,,2013-07-15 23:40:00,
2013-07-15 19:50:00,84.0,68.0,-100.00,NNW,328,0.0,3.0,58,0.00,,,0.00,240.000000,,2013-07-15 23:50:00,
2013-07-15 20:01:00,78.0,70.0,-100.00,NNW,332,0.0,1.0,77,0.00,,,0.00,34.000000,,2013-07-16 00:01:00,
2013-07-15 20:50:00,78.0,70.0,-100.00,NNW,332,0.0,1.0,77,0.00,,,0.00,34.000000,,2013-07-16 00:50:00,
2013-07-15 21:01:00,74.0,70.0,-100.00,NNW,332,0.0,0.0,88,0.00,,,0.00,9.000000,,2013-07-16 01:01:00,
2013-07-15 21:49:00,74.0,70.0,-100.00,NNW,332,0.0,0.0,88,0.00,,,0.00,9.000000,,2013-07-16 01:49:00,
2013-07-15 22:01:00,72.0,71.0,-100.00,NNW,332,0.0,0.0,96,0.00,,,0.00,0.000000,,2013-07-16 02:01:00,
2013-07-15 22:35:00,72.0,71.0,-100.00,NNW,332,0.0,0.0,96,0.00,,,0.00,0.000000,,2013-07-16 02:35:00,
2013-07-15 22:52:00,72.0,71.0,-100.00,NNW,332,0.0,0.0,96,0.00,,,0.00,0.000000,,2013-07-16 02:52:00,
2013-07-15 23:01:00,71.0,70.0,-100.00,NNW,332,0.0,0.0,98,0.00,,,0.00,0.000000,,2013-07-16 03:01:00,
2013-07-15 23:49:00,71.0,70.0,-100.00,NNW,332,0.0,0.0,98,0.00,,,0.00,0.000000,,2013-07-16 03:49:00,
2013-07-15 23:58:00,71.0,70.0,-100.00,NNW,332,0.0,0.0,98,0.00,,,0.00,0.000000,,2013-07-16 03:58:00,